Flight Briefing for CPX963

Departure Arrival
Chicago/Rockford International Airport (KRFD)
Click to view FAA NOTAMS
Joint Base McGuire Dix Lakehurst (KWRI)
Click to view FAA NOTAMS
Departure Time Arrival Time
N/A N/A
Aircraft Distance
B767-300BDSF 670nm
Departure METAR Arrival METAR
KRFD 192154Z 14006KT 10SM FEW150 OVC250 M04/M11 A3050 RMK AO2 SLP343 T10391106 KWRI 192156Z AUTO 30007KT 10SM CLR 01/M13 A3052 RMK AO2 SLP336 T00121126
Suggested Route
QUOTE WHETT J64 LEPEW J518 AVERE J152 HAR HAR5


View recent IFR Routes data
Notes
EMPTY | NON-REVENUE REPOSITIONING LEG

Charts and Procedures

Charts for KRFD
No chart available
Charts for KWRI
No chart available

Ventusky Weather




{"cat":null,"equip":null,"transponder":null,"pbn":"PBN\/","maxpax":null,"oew":"0.0","mzfw":"0.0","mtow":"0.0","mlw":"0.0","maxfuel":"0.0"} DEVELOPMENTAL TEST USE ONLY